sensor_id;sensor_type;location;lat;lon;timestamp;P1;durP1;ratioP1;P2;durP2;ratioP2
56824;SDS011;42705;50.326;18.772;2022-07-06T00:02:38;19.40;;;13.87;;
56824;SDS011;42705;50.326;18.772;2022-07-06T00:07:59;19.60;;;12.70;;
56824;SDS011;42705;50.326;18.772;2022-07-06T00:13:19;17.00;;;14.03;;
56824;SDS011;42705;50.326;18.772;2022-07-06T00:18:40;19.20;;;14.60;;
56824;SDS011;42705;50.326;18.772;2022-07-06T00:24:01;15.40;;;12.50;;
56824;SDS011;42705;50.326;18.772;2022-07-06T00:29:23;14.68;;;12.93;;
56824;SDS011;42705;50.326;18.772;2022-07-06T00:34:44;17.35;;;13.68;;
56824;SDS011;42705;50.326;18.772;2022-07-06T00:40:06;18.50;;;12.37;;
56824;SDS011;42705;50.326;18.772;2022-07-06T00:45:28;14.85;;;12.07;;
56824;SDS011;42705;50.326;18.772;2022-07-06T00:50:49;15.37;;;13.47;;
56824;SDS011;42705;50.326;18.772;2022-07-06T00:56:10;15.53;;;10.53;;
56824;SDS011;42705;50.326;18.772;2022-07-06T01:01:31;13.60;;;11.70;;
56824;SDS011;42705;50.326;18.772;2022-07-06T01:06:52;14.50;;;12.40;;
56824;SDS011;42705;50.326;18.772;2022-07-06T01:12:13;14.90;;;11.45;;
56824;SDS011;42705;50.326;18.772;2022-07-06T01:17:35;15.43;;;11.93;;
56824;SDS011;42705;50.326;18.772;2022-07-06T01:22:58;16.50;;;12.83;;
56824;SDS011;42705;50.326;18.772;2022-07-06T01:28:20;14.93;;;11.55;;
56824;SDS011;42705;50.326;18.772;2022-07-06T01:33:41;19.48;;;12.45;;
56824;SDS011;42705;50.326;18.772;2022-07-06T01:39:04;16.35;;;13.58;;
56824;SDS011;42705;50.326;18.772;2022-07-06T01:44:25;15.32;;;11.12;;
56824;SDS011;42705;50.326;18.772;2022-07-06T01:49:47;15.63;;;13.15;;
56824;SDS011;42705;50.326;18.772;2022-07-06T01:55:09;17.82;;;12.37;;
56824;SDS011;42705;50.326;18.772;2022-07-06T02:00:31;14.23;;;10.85;;
56824;SDS011;42705;50.326;18.772;2022-07-06T02:05:53;22.45;;;12.95;;
56824;SDS011;42705;50.326;18.772;2022-07-06T02:11:14;16.33;;;13.00;;
56824;SDS011;42705;50.326;18.772;2022-07-06T02:21:57;19.30;;;12.90;;
56824;SDS011;42705;50.326;18.772;2022-07-06T02:27:18;20.05;;;13.98;;
56824;SDS011;42705;50.326;18.772;2022-07-06T02:32:40;15.33;;;11.90;;
56824;SDS011;42705;50.326;18.772;2022-07-06T02:38:02;20.97;;;13.53;;
56824;SDS011;42705;50.326;18.772;2022-07-06T02:43:23;19.85;;;13.75;;
56824;SDS011;42705;50.326;18.772;2022-07-06T02:48:44;15.03;;;11.80;;
56824;SDS011;42705;50.326;18.772;2022-07-06T02:54:05;18.98;;;13.30;;
56824;SDS011;42705;50.326;18.772;2022-07-06T02:59:26;25.62;;;13.60;;
56824;SDS011;42705;50.326;18.772;2022-07-06T03:04:47;18.48;;;12.60;;
56824;SDS011;42705;50.326;18.772;2022-07-06T03:10:09;16.73;;;13.63;;
56824;SDS011;42705;50.326;18.772;2022-07-06T03:15:30;16.97;;;12.75;;
56824;SDS011;42705;50.326;18.772;2022-07-06T03:20:52;22.87;;;14.23;;
56824;SDS011;42705;50.326;18.772;2022-07-06T03:26:15;17.42;;;13.20;;
56824;SDS011;42705;50.326;18.772;2022-07-06T03:31:36;19.10;;;14.10;;
56824;SDS011;42705;50.326;18.772;2022-07-06T03:36:58;17.40;;;12.47;;
56824;SDS011;42705;50.326;18.772;2022-07-06T03:42:19;15.72;;;13.45;;
56824;SDS011;42705;50.326;18.772;2022-07-06T03:47:40;17.37;;;13.38;;
56824;SDS011;42705;50.326;18.772;2022-07-06T03:53:03;15.70;;;12.10;;
56824;SDS011;42705;50.326;18.772;2022-07-06T03:58:24;20.25;;;13.08;;
56824;SDS011;42705;50.326;18.772;2022-07-06T04:03:45;19.73;;;13.20;;
56824;SDS011;42705;50.326;18.772;2022-07-06T04:09:07;14.63;;;11.30;;
56824;SDS011;42705;50.326;18.772;2022-07-06T04:14:28;15.50;;;12.63;;
56824;SDS011;42705;50.326;18.772;2022-07-06T04:19:49;18.52;;;13.18;;
56824;SDS011;42705;50.326;18.772;2022-07-06T04:25:11;16.67;;;13.03;;
56824;SDS011;42705;50.326;18.772;2022-07-06T04:30:32;19.35;;;14.28;;
56824;SDS011;42705;50.326;18.772;2022-07-06T04:35:54;23.67;;;16.45;;
56824;SDS011;42705;50.326;18.772;2022-07-06T04:41:17;17.15;;;13.28;;
56824;SDS011;42705;50.326;18.772;2022-07-06T04:46:38;17.60;;;13.87;;
56824;SDS011;42705;50.326;18.772;2022-07-06T04:51:59;17.82;;;14.00;;
56824;SDS011;42705;50.326;18.772;2022-07-06T04:57:21;15.43;;;12.40;;
56824;SDS011;42705;50.326;18.772;2022-07-06T05:02:43;17.27;;;13.32;;
56824;SDS011;42705;50.326;18.772;2022-07-06T05:08:04;19.00;;;14.55;;
56824;SDS011;42705;50.326;18.772;2022-07-06T05:13:25;13.40;;;11.50;;
56824;SDS011;42705;50.326;18.772;2022-07-06T05:18:47;20.63;;;13.90;;
56824;SDS011;42705;50.326;18.772;2022-07-06T05:24:09;19.67;;;13.48;;
56824;SDS011;42705;50.326;18.772;2022-07-06T05:29:30;16.27;;;14.47;;
56824;SDS011;42705;50.326;18.772;2022-07-06T05:34:51;15.65;;;11.45;;
56824;SDS011;42705;50.326;18.772;2022-07-06T05:40:13;15.10;;;13.00;;
56824;SDS011;42705;50.326;18.772;2022-07-06T05:45:34;20.52;;;14.50;;
56824;SDS011;42705;50.326;18.772;2022-07-06T05:50:56;17.93;;;14.67;;
56824;SDS011;42705;50.326;18.772;2022-07-06T05:56:17;13.77;;;11.47;;
56824;SDS011;42705;50.326;18.772;2022-07-06T06:01:40;15.88;;;13.10;;
56824;SDS011;42705;50.326;18.772;2022-07-06T06:07:02;14.80;;;13.03;;
56824;SDS011;42705;50.326;18.772;2022-07-06T06:12:24;15.35;;;13.38;;
56824;SDS011;42705;50.326;18.772;2022-07-06T06:17:45;15.13;;;13.50;;
56824;SDS011;42705;50.326;18.772;2022-07-06T06:23:06;16.48;;;13.35;;
56824;SDS011;42705;50.326;18.772;2022-07-06T06:28:27;17.40;;;11.88;;
56824;SDS011;42705;50.326;18.772;2022-07-06T06:33:48;12.18;;;10.98;;
56824;SDS011;42705;50.326;18.772;2022-07-06T06:39:09;14.37;;;12.87;;
56824;SDS011;42705;50.326;18.772;2022-07-06T06:44:30;13.25;;;10.75;;
56824;SDS011;42705;50.326;18.772;2022-07-06T06:49:50;13.80;;;11.03;;
56824;SDS011;42705;50.326;18.772;2022-07-06T06:55:11;11.03;;;8.43;;
56824;SDS011;42705;50.326;18.772;2022-07-06T07:00:32;10.30;;;7.75;;
56824;SDS011;42705;50.326;18.772;2022-07-06T07:05:54;8.53;;;7.10;;
56824;SDS011;42705;50.326;18.772;2022-07-06T07:11:14;9.10;;;8.13;;
56824;SDS011;42705;50.326;18.772;2022-07-06T07:16:35;9.20;;;8.20;;
56824;SDS011;42705;50.326;18.772;2022-07-06T07:21:56;9.08;;;7.47;;
56824;SDS011;42705;50.326;18.772;2022-07-06T07:27:17;17.15;;;7.65;;
56824;SDS011;42705;50.326;18.772;2022-07-06T07:32:38;7.80;;;7.10;;
56824;SDS011;42705;50.326;18.772;2022-07-06T07:38:00;5.90;;;5.40;;
56824;SDS011;42705;50.326;18.772;2022-07-06T07:43:21;7.67;;;6.97;;
56824;SDS011;42705;50.326;18.772;2022-07-06T07:48:42;8.45;;;5.97;;
56824;SDS011;42705;50.326;18.772;2022-07-06T07:54:03;5.37;;;4.87;;
56824;SDS011;42705;50.326;18.772;2022-07-06T07:59:25;5.08;;;4.58;;
56824;SDS011;42705;50.326;18.772;2022-07-06T08:04:47;7.22;;;3.15;;
56824;SDS011;42705;50.326;18.772;2022-07-06T08:10:08;5.30;;;3.65;;
56824;SDS011;42705;50.326;18.772;2022-07-06T08:15:30;2.72;;;2.52;;
56824;SDS011;42705;50.326;18.772;2022-07-06T08:20:51;2.77;;;2.58;;
56824;SDS011;42705;50.326;18.772;2022-07-06T08:26:13;3.20;;;2.73;;
56824;SDS011;42705;50.326;18.772;2022-07-06T08:31:34;2.77;;;1.70;;
56824;SDS011;42705;50.326;18.772;2022-07-06T08:36:55;3.50;;;2.17;;
56824;SDS011;42705;50.326;18.772;2022-07-06T08:42:16;3.50;;;2.20;;
56824;SDS011;42705;50.326;18.772;2022-07-06T08:47:37;3.10;;;2.00;;
56824;SDS011;42705;50.326;18.772;2022-07-06T08:52:59;2.70;;;1.60;;
56824;SDS011;42705;50.326;18.772;2022-07-06T08:58:21;2.33;;;1.73;;
56824;SDS011;42705;50.326;18.772;2022-07-06T09:03:45;1.52;;;1.10;;
56824;SDS011;42705;50.326;18.772;2022-07-06T09:09:10;2.20;;;1.40;;
56824;SDS011;42705;50.326;18.772;2022-07-06T09:14:33;1.20;;;1.10;;
56824;SDS011;42705;50.326;18.772;2022-07-06T09:19:54;2.98;;;1.00;;
56824;SDS011;42705;50.326;18.772;2022-07-06T09:25:16;1.25;;;1.25;;
56824;SDS011;42705;50.326;18.772;2022-07-06T09:30:37;2.67;;;1.60;;
56824;SDS011;42705;50.326;18.772;2022-07-06T09:36:00;1.70;;;1.10;;
56824;SDS011;42705;50.326;18.772;2022-07-06T09:41:31;1.90;;;1.30;;
56824;SDS011;42705;50.326;18.772;2022-07-06T09:46:53;1.72;;;1.40;;
56824;SDS011;42705;50.326;18.772;2022-07-06T09:52:17;1.30;;;1.20;;
56824;SDS011;42705;50.326;18.772;2022-07-06T09:57:39;1.65;;;1.37;;
56824;SDS011;42705;50.326;18.772;2022-07-06T10:03:00;1.10;;;1.00;;
56824;SDS011;42705;50.326;18.772;2022-07-06T10:08:22;2.02;;;0.98;;
56824;SDS011;42705;50.326;18.772;2022-07-06T10:13:43;1.55;;;1.00;;
56824;SDS011;42705;50.326;18.772;2022-07-06T10:19:07;1.42;;;1.32;;
56824;SDS011;42705;50.326;18.772;2022-07-06T10:24:30;1.90;;;1.80;;
56824;SDS011;42705;50.326;18.772;2022-07-06T10:29:53;1.55;;;1.45;;
56824;SDS011;42705;50.326;18.772;2022-07-06T10:35:14;2.08;;;1.60;;
56824;SDS011;42705;50.326;18.772;2022-07-06T10:40:37;1.85;;;1.75;;
56824;SDS011;42705;50.326;18.772;2022-07-06T10:46:19;1.50;;;1.35;;
56824;SDS011;42705;50.326;18.772;2022-07-06T10:51:40;1.20;;;1.10;;
56824;SDS011;42705;50.326;18.772;2022-07-06T10:57:08;3.02;;;1.70;;
56824;SDS011;42705;50.326;18.772;2022-07-06T11:02:37;1.62;;;1.52;;
56824;SDS011;42705;50.326;18.772;2022-07-06T11:08:00;2.05;;;1.50;;
56824;SDS011;42705;50.326;18.772;2022-07-06T11:13:28;1.50;;;1.40;;
56824;SDS011;42705;50.326;18.772;2022-07-06T11:19:10;1.62;;;1.42;;
56824;SDS011;42705;50.326;18.772;2022-07-06T11:24:24;2.58;;;1.70;;
56824;SDS011;42705;50.326;18.772;2022-07-06T11:29:47;2.35;;;1.87;;
56824;SDS011;42705;50.326;18.772;2022-07-06T11:35:08;1.63;;;1.53;;
56824;SDS011;42705;50.326;18.772;2022-07-06T11:40:29;5.03;;;1.97;;
56824;SDS011;42705;50.326;18.772;2022-07-06T11:45:50;2.83;;;2.27;;
56824;SDS011;42705;50.326;18.772;2022-07-06T11:51:10;3.50;;;1.65;;
56824;SDS011;42705;50.326;18.772;2022-07-06T11:56:31;1.70;;;1.60;;
56824;SDS011;42705;50.326;18.772;2022-07-06T12:02:05;2.37;;;2.10;;
56824;SDS011;42705;50.326;18.772;2022-07-06T12:07:30;4.20;;;1.77;;
56824;SDS011;42705;50.326;18.772;2022-07-06T12:12:51;1.87;;;1.57;;
56824;SDS011;42705;50.326;18.772;2022-07-06T12:18:12;1.80;;;1.70;;
56824;SDS011;42705;50.326;18.772;2022-07-06T12:23:40;1.83;;;1.30;;
56824;SDS011;42705;50.326;18.772;2022-07-06T12:29:03;4.20;;;1.40;;
56824;SDS011;42705;50.326;18.772;2022-07-06T12:34:29;2.05;;;1.30;;
56824;SDS011;42705;50.326;18.772;2022-07-06T12:39:52;3.35;;;1.35;;
56824;SDS011;42705;50.326;18.772;2022-07-06T12:45:13;1.93;;;1.70;;
56824;SDS011;42705;50.326;18.772;2022-07-06T12:50:35;1.23;;;1.17;;
56824;SDS011;42705;50.326;18.772;2022-07-06T12:56:08;3.42;;;1.35;;
56824;SDS011;42705;50.326;18.772;2022-07-06T13:01:31;1.37;;;1.27;;
56824;SDS011;42705;50.326;18.772;2022-07-06T13:06:52;3.07;;;1.53;;
56824;SDS011;42705;50.326;18.772;2022-07-06T13:12:13;1.72;;;1.60;;
56824;SDS011;42705;50.326;18.772;2022-07-06T13:17:34;4.97;;;1.50;;
56824;SDS011;42705;50.326;18.772;2022-07-06T13:22:57;2.50;;;1.27;;
56824;SDS011;42705;50.326;18.772;2022-07-06T13:28:18;2.93;;;1.20;;
56824;SDS011;42705;50.326;18.772;2022-07-06T13:33:39;0.90;;;0.90;;
56824;SDS011;42705;50.326;18.772;2022-07-06T13:39:00;1.20;;;1.10;;
56824;SDS011;42705;50.326;18.772;2022-07-06T13:44:21;1.85;;;1.10;;
56824;SDS011;42705;50.326;18.772;2022-07-06T13:55:06;2.60;;;0.70;;
56824;SDS011;42705;50.326;18.772;2022-07-06T14:00:29;1.35;;;0.68;;
56824;SDS011;42705;50.326;18.772;2022-07-06T14:05:50;0.78;;;0.65;;
56824;SDS011;42705;50.326;18.772;2022-07-06T14:11:13;2.37;;;0.80;;
56824;SDS011;42705;50.326;18.772;2022-07-06T14:16:34;2.90;;;0.70;;
56824;SDS011;42705;50.326;18.772;2022-07-06T14:21:55;1.60;;;0.80;;
56824;SDS011;42705;50.326;18.772;2022-07-06T14:27:17;0.80;;;0.60;;
56824;SDS011;42705;50.326;18.772;2022-07-06T14:32:38;1.65;;;0.55;;
56824;SDS011;42705;50.326;18.772;2022-07-06T14:38:00;0.72;;;0.72;;
56824;SDS011;42705;50.326;18.772;2022-07-06T14:43:22;0.60;;;0.60;;
56824;SDS011;42705;50.326;18.772;2022-07-06T14:48:43;14.05;;;1.00;;
56824;SDS011;42705;50.326;18.772;2022-07-06T14:54:04;4.10;;;0.60;;
56824;SDS011;42705;50.326;18.772;2022-07-06T14:59:25;8.45;;;1.27;;
56824;SDS011;42705;50.326;18.772;2022-07-06T15:04:45;1.35;;;1.07;;
56824;SDS011;42705;50.326;18.772;2022-07-06T15:10:07;1.52;;;0.68;;
56824;SDS011;42705;50.326;18.772;2022-07-06T15:15:30;1.70;;;0.98;;
56824;SDS011;42705;50.326;18.772;2022-07-06T15:20:51;2.98;;;0.75;;
56824;SDS011;42705;50.326;18.772;2022-07-06T15:26:12;1.55;;;0.72;;
56824;SDS011;42705;50.326;18.772;2022-07-06T15:31:33;0.85;;;0.80;;
56824;SDS011;42705;50.326;18.772;2022-07-06T15:36:54;3.33;;;0.90;;
56824;SDS011;42705;50.326;18.772;2022-07-06T15:42:16;3.42;;;0.93;;
56824;SDS011;42705;50.326;18.772;2022-07-06T15:47:36;2.60;;;0.98;;
56824;SDS011;42705;50.326;18.772;2022-07-06T15:52:59;1.57;;;0.50;;
56824;SDS011;42705;50.326;18.772;2022-07-06T16:03:41;1.53;;;1.00;;
56824;SDS011;42705;50.326;18.772;2022-07-06T16:09:01;1.70;;;1.02;;
56824;SDS011;42705;50.326;18.772;2022-07-06T16:19:43;2.47;;;0.80;;
56824;SDS011;42705;50.326;18.772;2022-07-06T16:25:04;1.02;;;1.00;;
56824;SDS011;42705;50.326;18.772;2022-07-06T16:30:26;1.10;;;0.98;;
56824;SDS011;42705;50.326;18.772;2022-07-06T16:35:47;2.83;;;0.90;;
56824;SDS011;42705;50.326;18.772;2022-07-06T16:41:09;2.33;;;0.72;;
56824;SDS011;42705;50.326;18.772;2022-07-06T16:46:30;1.23;;;0.70;;
56824;SDS011;42705;50.326;18.772;2022-07-06T16:51:50;2.58;;;1.00;;
56824;SDS011;42705;50.326;18.772;2022-07-06T16:57:11;0.95;;;0.80;;
56824;SDS011;42705;50.326;18.772;2022-07-06T17:02:32;1.75;;;0.98;;
56824;SDS011;42705;50.326;18.772;2022-07-06T17:07:53;1.82;;;0.90;;
56824;SDS011;42705;50.326;18.772;2022-07-06T17:13:14;4.43;;;0.80;;
56824;SDS011;42705;50.326;18.772;2022-07-06T17:23:56;1.90;;;0.80;;
56824;SDS011;42705;50.326;18.772;2022-07-06T17:29:17;1.80;;;0.78;;
56824;SDS011;42705;50.326;18.772;2022-07-06T17:34:38;1.75;;;0.90;;
56824;SDS011;42705;50.326;18.772;2022-07-06T17:39:59;2.52;;;1.07;;
56824;SDS011;42705;50.326;18.772;2022-07-06T17:45:20;1.30;;;0.80;;
56824;SDS011;42705;50.326;18.772;2022-07-06T17:50:42;3.85;;;1.27;;
56824;SDS011;42705;50.326;18.772;2022-07-06T17:56:03;3.20;;;1.17;;
56824;SDS011;42705;50.326;18.772;2022-07-06T18:01:24;2.35;;;1.52;;
56824;SDS011;42705;50.326;18.772;2022-07-06T18:06:47;2.00;;;1.30;;
56824;SDS011;42705;50.326;18.772;2022-07-06T18:12:08;4.37;;;1.93;;
56824;SDS011;42705;50.326;18.772;2022-07-06T18:17:30;4.20;;;2.00;;
56824;SDS011;42705;50.326;18.772;2022-07-06T18:22:51;3.50;;;1.40;;
56824;SDS011;42705;50.326;18.772;2022-07-06T18:28:12;4.23;;;2.07;;
56824;SDS011;42705;50.326;18.772;2022-07-06T18:33:35;4.33;;;1.30;;
56824;SDS011;42705;50.326;18.772;2022-07-06T18:38:57;1.77;;;1.40;;
56824;SDS011;42705;50.326;18.772;2022-07-06T18:44:18;3.27;;;1.60;;
56824;SDS011;42705;50.326;18.772;2022-07-06T18:49:39;3.77;;;1.70;;
56824;SDS011;42705;50.326;18.772;2022-07-06T19:00:25;3.22;;;1.87;;
56824;SDS011;42705;50.326;18.772;2022-07-06T19:05:46;2.80;;;1.93;;
56824;SDS011;42705;50.326;18.772;2022-07-06T19:11:07;3.97;;;2.23;;
56824;SDS011;42705;50.326;18.772;2022-07-06T19:16:28;5.67;;;2.53;;
56824;SDS011;42705;50.326;18.772;2022-07-06T19:21:49;5.58;;;2.17;;
56824;SDS011;42705;50.326;18.772;2022-07-06T19:27:10;5.90;;;2.43;;
56824;SDS011;42705;50.326;18.772;2022-07-06T19:32:31;2.27;;;1.87;;
56824;SDS011;42705;50.326;18.772;2022-07-06T19:37:54;3.77;;;2.10;;
56824;SDS011;42705;50.326;18.772;2022-07-06T19:43:15;5.00;;;1.75;;
56824;SDS011;42705;50.326;18.772;2022-07-06T19:48:35;3.20;;;1.97;;
56824;SDS011;42705;50.326;18.772;2022-07-06T19:53:59;3.85;;;1.90;;
56824;SDS011;42705;50.326;18.772;2022-07-06T19:59:20;4.28;;;1.95;;
56824;SDS011;42705;50.326;18.772;2022-07-06T20:04:41;2.93;;;1.90;;
56824;SDS011;42705;50.326;18.772;2022-07-06T20:10:02;6.03;;;2.60;;
56824;SDS011;42705;50.326;18.772;2022-07-06T20:15:24;4.22;;;2.83;;
56824;SDS011;42705;50.326;18.772;2022-07-06T20:20:45;2.15;;;2.00;;
56824;SDS011;42705;50.326;18.772;2022-07-06T20:26:06;4.53;;;1.97;;
56824;SDS011;42705;50.326;18.772;2022-07-06T20:31:27;3.87;;;1.83;;
56824;SDS011;42705;50.326;18.772;2022-07-06T20:36:48;4.60;;;1.62;;
56824;SDS011;42705;50.326;18.772;2022-07-06T20:42:09;3.53;;;2.10;;
56824;SDS011;42705;50.326;18.772;2022-07-06T20:47:29;2.67;;;1.82;;
56824;SDS011;42705;50.326;18.772;2022-07-06T20:52:50;2.42;;;1.40;;
56824;SDS011;42705;50.326;18.772;2022-07-06T20:58:12;4.33;;;1.75;;
56824;SDS011;42705;50.326;18.772;2022-07-06T21:03:33;4.90;;;2.30;;
56824;SDS011;42705;50.326;18.772;2022-07-06T21:08:54;3.98;;;1.80;;
56824;SDS011;42705;50.326;18.772;2022-07-06T21:14:15;3.17;;;2.08;;
56824;SDS011;42705;50.326;18.772;2022-07-06T21:19:36;3.47;;;2.12;;
56824;SDS011;42705;50.326;18.772;2022-07-06T21:24:57;3.53;;;2.43;;
56824;SDS011;42705;50.326;18.772;2022-07-06T21:30:18;2.72;;;2.37;;
56824;SDS011;42705;50.326;18.772;2022-07-06T21:35:38;3.62;;;2.50;;
56824;SDS011;42705;50.326;18.772;2022-07-06T21:40:59;4.30;;;3.20;;
56824;SDS011;42705;50.326;18.772;2022-07-06T21:46:20;3.60;;;2.97;;
56824;SDS011;42705;50.326;18.772;2022-07-06T21:51:41;2.87;;;2.43;;
56824;SDS011;42705;50.326;18.772;2022-07-06T21:57:02;3.50;;;2.77;;
56824;SDS011;42705;50.326;18.772;2022-07-06T22:02:24;4.70;;;3.35;;
56824;SDS011;42705;50.326;18.772;2022-07-06T22:07:45;10.20;;;5.85;;
56824;SDS011;42705;50.326;18.772;2022-07-06T22:13:06;6.87;;;4.13;;
56824;SDS011;42705;50.326;18.772;2022-07-06T22:18:27;4.83;;;3.52;;
56824;SDS011;42705;50.326;18.772;2022-07-06T22:23:48;7.67;;;4.20;;
56824;SDS011;42705;50.326;18.772;2022-07-06T22:29:10;6.15;;;4.72;;
56824;SDS011;42705;50.326;18.772;2022-07-06T22:34:31;6.78;;;4.33;;
56824;SDS011;42705;50.326;18.772;2022-07-06T22:39:52;9.03;;;4.33;;
56824;SDS011;42705;50.326;18.772;2022-07-06T22:45:15;8.05;;;4.10;;
56824;SDS011;42705;50.326;18.772;2022-07-06T22:50:36;5.97;;;4.10;;
56824;SDS011;42705;50.326;18.772;2022-07-06T22:55:57;4.42;;;3.45;;
56824;SDS011;42705;50.326;18.772;2022-07-06T23:01:19;3.02;;;2.80;;
56824;SDS011;42705;50.326;18.772;2022-07-06T23:06:41;4.42;;;3.60;;
56824;SDS011;42705;50.326;18.772;2022-07-06T23:12:03;5.35;;;4.08;;
56824;SDS011;42705;50.326;18.772;2022-07-06T23:17:25;5.55;;;3.70;;
56824;SDS011;42705;50.326;18.772;2022-07-06T23:22:46;7.55;;;4.00;;
56824;SDS011;42705;50.326;18.772;2022-07-06T23:28:08;7.83;;;4.30;;
56824;SDS011;42705;50.326;18.772;2022-07-06T23:33:28;6.35;;;3.87;;
56824;SDS011;42705;50.326;18.772;2022-07-06T23:38:49;10.32;;;4.28;;
56824;SDS011;42705;50.326;18.772;2022-07-06T23:44:12;6.35;;;3.90;;
56824;SDS011;42705;50.326;18.772;2022-07-06T23:49:33;7.60;;;4.97;;
56824;SDS011;42705;50.326;18.772;2022-07-06T23:54:54;7.10;;;4.20;;
